sensor_id;sensor_type;location;lat;lon;timestamp;pressure;altitude;pressure_sealevel;temperature;humidity
47670;BME280;33408;52.062;11.722;2023-02-01T00:02:15;100927.19;;;4.69;100.00
47670;BME280;33408;52.062;11.722;2023-02-01T00:04:41;100915.16;;;4.65;100.00
47670;BME280;33408;52.062;11.722;2023-02-01T00:07:08;100932.22;;;4.60;100.00
47670;BME280;33408;52.062;11.722;2023-02-01T00:09:34;100917.72;;;4.64;100.00
47670;BME280;33408;52.062;11.722;2023-02-01T00:12:01;100927.19;;;4.69;100.00
47670;BME280;33408;52.062;11.722;2023-02-01T00:14:29;100921.13;;;4.63;100.00
47670;BME280;33408;52.062;11.722;2023-02-01T00:16:57;100928.00;;;4.68;100.00
47670;BME280;33408;52.062;11.722;2023-02-01T00:19:25;100921.94;;;4.59;100.00
47670;BME280;33408;52.062;11.722;2023-02-01T00:21:51;100926.38;;;4.72;100.00
47670;BME280;33408;52.062;11.722;2023-02-01T00:24:18;100924.53;;;4.62;100.00
47670;BME280;33408;52.062;11.722;2023-02-01T00:26:46;100927.09;;;4.62;100.00
47670;BME280;33408;52.062;11.722;2023-02-01T00:29:15;100924.47;;;4.52;100.00
47670;BME280;33408;52.062;11.722;2023-02-01T00:31:42;100919.41;;;4.63;100.00
47670;BME280;33408;52.062;11.722;2023-02-01T00:34:10;100923.66;;;4.60;100.00
47670;BME280;33408;52.062;11.722;2023-02-01T00:36:39;100924.63;;;4.69;100.00
47670;BME280;33408;52.062;11.722;2023-02-01T00:39:06;100925.38;;;4.59;100.00
47670;BME280;33408;52.062;11.722;2023-02-01T00:41:32;100924.66;;;4.75;100.00
47670;BME280;33408;52.062;11.722;2023-02-01T00:43:59;100923.84;;;4.80;100.00
47670;BME280;33408;52.062;11.722;2023-02-01T00:46:26;100922.16;;;4.82;100.00
47670;BME280;33408;52.062;11.722;2023-02-01T00:48:53;100921.25;;;4.77;100.00
47670;BME280;33408;52.062;11.722;2023-02-01T00:51:21;100914.28;;;4.63;100.00
47670;BME280;33408;52.062;11.722;2023-02-01T00:53:50;100911.81;;;4.72;100.00
47670;BME280;33408;52.062;11.722;2023-02-01T00:56:17;100914.28;;;4.65;100.00
47670;BME280;33408;52.062;11.722;2023-02-01T00:58:43;100918.66;;;4.73;100.00
47670;BME280;33408;52.062;11.722;2023-02-01T01:01:12;100921.09;;;4.60;100.00
47670;BME280;33408;52.062;11.722;2023-02-01T01:03:40;100924.50;;;4.57;100.00
47670;BME280;33408;52.062;11.722;2023-02-01T01:06:09;100915.16;;;4.65;100.00
47670;BME280;33408;52.062;11.722;2023-02-01T01:08:37;100902.31;;;4.65;100.00
47670;BME280;33408;52.062;11.722;2023-02-01T01:11:06;100908.38;;;4.72;100.00
47670;BME280;33408;52.062;11.722;2023-02-01T01:13:33;100905.78;;;4.67;100.00
47670;BME280;33408;52.062;11.722;2023-02-01T01:16:00;100906.56;;;4.63;100.00
47670;BME280;33408;52.062;11.722;2023-02-01T01:18:28;100910.00;;;4.62;100.00
47670;BME280;33408;52.062;11.722;2023-02-01T01:20:55;100894.63;;;4.64;100.00
47670;BME280;33408;52.062;11.722;2023-02-01T01:23:21;100892.94;;;4.67;100.00
47670;BME280;33408;52.062;11.722;2023-02-01T01:25:48;100875.78;;;4.65;100.00
47670;BME280;33408;52.062;11.722;2023-02-01T01:28:16;100881.75;;;4.59;100.00
47670;BME280;33408;52.062;11.722;2023-02-01T01:30:43;100872.31;;;4.60;100.00
47670;BME280;33408;52.062;11.722;2023-02-01T01:33:09;100879.16;;;4.57;100.00
47670;BME280;33408;52.062;11.722;2023-02-01T01:35:36;100877.38;;;4.52;100.00
47670;BME280;33408;52.062;11.722;2023-02-01T01:38:03;100883.38;;;4.54;100.00
47670;BME280;33408;52.062;11.722;2023-02-01T01:40:30;100876.59;;;4.56;100.00
47670;BME280;33408;52.062;11.722;2023-02-01T01:42:57;100868.84;;;4.53;100.00
47670;BME280;33408;52.062;11.722;2023-02-01T01:45:27;100870.56;;;4.52;100.00
47670;BME280;33408;52.062;11.722;2023-02-01T01:47:57;100863.75;;;4.56;100.00
47670;BME280;33408;52.062;11.722;2023-02-01T01:50:27;100861.19;;;4.57;100.00
47670;BME280;33408;52.062;11.722;2023-02-01T01:52:58;100852.66;;;4.62;100.00
47670;BME280;33408;52.062;11.722;2023-02-01T01:55:27;100867.16;;;4.55;100.00
47670;BME280;33408;52.062;11.722;2023-02-01T01:57:59;100861.19;;;4.56;100.00
47670;BME280;33408;52.062;11.722;2023-02-01T02:00:29;100864.63;;;4.60;100.00
47670;BME280;33408;52.062;11.722;2023-02-01T02:02:58;100864.63;;;4.61;100.00
47670;BME280;33408;52.062;11.722;2023-02-01T02:05:29;100867.94;;;4.48;100.00
47670;BME280;33408;52.062;11.722;2023-02-01T02:07:58;100860.28;;;4.49;100.00
47670;BME280;33408;52.062;11.722;2023-02-01T02:10:26;100870.53;;;4.48;100.00
47670;BME280;33408;52.062;11.722;2023-02-01T02:13:14;100862.81;;;4.48;100.00
47670;BME280;33408;52.062;11.722;2023-02-01T02:15:48;100876.53;;;4.50;100.00
47670;BME280;33408;52.062;11.722;2023-02-01T02:18:28;100879.09;;;4.51;100.00
47670;BME280;33408;52.062;11.722;2023-02-01T02:21:11;100889.28;;;4.44;100.00
47670;BME280;33408;52.062;11.722;2023-02-01T02:24:09;100879.03;;;4.44;100.00
47670;BME280;33408;52.062;11.722;2023-02-01T02:26:52;100871.34;;;4.45;100.00
47670;BME280;33408;52.062;11.722;2023-02-01T02:29:51;100861.06;;;4.45;100.00
47670;BME280;33408;52.062;11.722;2023-02-01T02:32:49;100865.34;;;4.43;100.00
47670;BME280;33408;52.062;11.722;2023-02-01T02:35:26;100862.88;;;4.52;100.00
47670;BME280;33408;52.062;11.722;2023-02-01T02:37:58;100860.28;;;4.54;100.00
47670;BME280;33408;52.062;11.722;2023-02-01T02:40:31;100843.19;;;4.54;100.00
47670;BME280;33408;52.062;11.722;2023-02-01T02:43:05;100835.44;;;4.50;100.00
47670;BME280;33408;52.062;11.722;2023-02-01T02:45:56;100829.50;;;4.59;100.00
47670;BME280;33408;52.062;11.722;2023-02-01T02:48:56;100838.09;;;4.57;100.00
47670;BME280;33408;52.062;11.722;2023-02-01T02:51:29;100826.91;;;4.51;100.00
47670;BME280;33408;52.062;11.722;2023-02-01T02:54:18;100832.88;;;4.50;100.00
47670;BME280;33408;52.062;11.722;2023-02-01T02:57:06;100824.34;;;4.55;100.00
47670;BME280;33408;52.062;11.722;2023-02-01T02:59:52;100827.78;;;4.54;100.00
47670;BME280;33408;52.062;11.722;2023-02-01T03:02:37;100826.06;;;4.55;100.00
47670;BME280;33408;52.062;11.722;2023-02-01T03:05:22;100822.63;;;4.53;100.00
47670;BME280;33408;52.062;11.722;2023-02-01T03:07:57;100811.47;;;4.48;100.00
47670;BME280;33408;52.062;11.722;2023-02-01T03:10:34;100800.31;;;4.46;100.00
47670;BME280;33408;52.062;11.722;2023-02-01T03:13:04;100805.44;;;4.46;100.00
47670;BME280;33408;52.062;11.722;2023-02-01T03:15:36;100812.28;;;4.42;100.00
47670;BME280;33408;52.062;11.722;2023-02-01T03:18:08;100807.13;;;4.41;100.00
47670;BME280;33408;52.062;11.722;2023-02-01T03:20:40;100810.56;;;4.40;100.00
47670;BME280;33408;52.062;11.722;2023-02-01T03:23:14;100797.72;;;4.40;100.00
47670;BME280;33408;52.062;11.722;2023-02-01T03:25:42;100774.66;;;4.46;100.00
47670;BME280;33408;52.062;11.722;2023-02-01T03:28:10;100785.75;;;4.42;100.00
47670;BME280;33408;52.062;11.722;2023-02-01T03:30:39;100776.34;;;4.42;100.00
47670;BME280;33408;52.062;11.722;2023-02-01T03:33:09;100778.97;;;4.50;100.00
47670;BME280;33408;52.062;11.722;2023-02-01T03:35:43;100778.94;;;4.45;100.00
47670;BME280;33408;52.062;11.722;2023-02-01T03:38:20;100787.47;;;4.43;100.00
47670;BME280;33408;52.062;11.722;2023-02-01T03:40:52;100785.78;;;4.45;100.00
47670;BME280;33408;52.062;11.722;2023-02-01T03:43:20;100781.56;;;4.51;100.00
47670;BME280;33408;52.062;11.722;2023-02-01T03:45:51;100775.56;;;4.51;100.00
47670;BME280;33408;52.062;11.722;2023-02-01T03:48:20;100773.81;;;4.45;100.00
47670;BME280;33408;52.062;11.722;2023-02-01T03:50:52;100765.22;;;4.42;100.00
47670;BME280;33408;52.062;11.722;2023-02-01T03:53:22;100780.53;;;4.32;100.00
47670;BME280;33408;52.062;11.722;2023-02-01T03:55:52;100764.31;;;4.33;100.00
47670;BME280;33408;52.062;11.722;2023-02-01T03:58:21;100771.13;;;4.33;100.00
47670;BME280;33408;52.062;11.722;2023-02-01T04:00:50;100768.56;;;4.34;100.00
47670;BME280;33408;52.062;11.722;2023-02-01T04:03:17;100772.06;;;4.38;100.00
47670;BME280;33408;52.062;11.722;2023-02-01T04:05:44;100776.25;;;4.33;100.00
47670;BME280;33408;52.062;11.722;2023-02-01T04:08:10;100778.00;;;4.34;100.00
47670;BME280;33408;52.062;11.722;2023-02-01T04:10:39;100777.97;;;4.32;100.00
47670;BME280;33408;52.062;11.722;2023-02-01T04:13:05;100776.25;;;4.27;100.00
47670;BME280;33408;52.062;11.722;2023-02-01T04:15:32;100776.25;;;4.30;100.00
47670;BME280;33408;52.062;11.722;2023-02-01T04:18:00;100770.22;;;4.26;100.00
47670;BME280;33408;52.062;11.722;2023-02-01T04:20:26;100779.59;;;4.21;100.00
47670;BME280;33408;52.062;11.722;2023-02-01T04:22:53;100779.53;;;4.15;100.00
47670;BME280;33408;52.062;11.722;2023-02-01T04:25:20;100768.44;;;4.14;100.00
47670;BME280;33408;52.062;11.722;2023-02-01T04:27:48;100777.84;;;4.12;100.00
47670;BME280;33408;52.062;11.722;2023-02-01T04:30:15;100774.41;;;4.13;100.00
47670;BME280;33408;52.062;11.722;2023-02-01T04:32:42;100765.78;;;4.07;100.00
47670;BME280;33408;52.062;11.722;2023-02-01T04:35:08;100772.72;;;4.15;100.00
47670;BME280;33408;52.062;11.722;2023-02-01T04:37:37;100765.91;;;4.17;100.00
47670;BME280;33408;52.062;11.722;2023-02-01T04:40:04;100775.28;;;4.14;100.00
47670;BME280;33408;52.062;11.722;2023-02-01T04:42:31;100771.00;;;4.16;100.00
47670;BME280;33408;52.062;11.722;2023-02-01T04:44:59;100767.59;;;4.20;100.00
47670;BME280;33408;52.062;11.722;2023-02-01T04:47:25;100765.03;;;4.20;100.00
47670;BME280;33408;52.062;11.722;2023-02-01T04:49:52;100760.69;;;4.10;100.00
47670;BME280;33408;52.062;11.722;2023-02-01T04:52:19;100765.88;;;4.16;100.00
47670;BME280;33408;52.062;11.722;2023-02-01T04:54:45;100762.44;;;4.17;100.00
47670;BME280;33408;52.062;11.722;2023-02-01T04:57:12;100759.91;;;4.18;100.00
47670;BME280;33408;52.062;11.722;2023-02-01T04:59:40;100767.59;;;4.20;100.00
47670;BME280;33408;52.062;11.722;2023-02-01T05:02:08;100765.91;;;4.19;100.00
47670;BME280;33408;52.062;11.722;2023-02-01T05:04:34;100753.91;;;4.18;100.00
47670;BME280;33408;52.062;11.722;2023-02-01T05:07:01;100752.19;;;4.14;100.00
47670;BME280;33408;52.062;11.722;2023-02-01T05:09:27;100753.06;;;4.16;100.00
47670;BME280;33408;52.062;11.722;2023-02-01T05:11:54;100751.25;;;4.06;100.00
47670;BME280;33408;52.062;11.722;2023-02-01T05:14:38;100741.88;;;4.08;100.00
47670;BME280;33408;52.062;11.722;2023-02-01T05:17:05;100736.78;;;4.11;100.00
47670;BME280;33408;52.062;11.722;2023-02-01T05:19:33;100740.22;;;4.14;100.00
47670;BME280;33408;52.062;11.722;2023-02-01T05:21:59;100739.38;;;4.14;100.00
47670;BME280;33408;52.062;11.722;2023-02-01T05:24:26;100737.69;;;4.19;100.00
47670;BME280;33408;52.062;11.722;2023-02-01T05:26:53;100733.41;;;4.19;100.00
47670;BME280;33408;52.062;11.722;2023-02-01T05:29:19;100729.16;;;4.26;100.00
47670;BME280;33408;52.062;11.722;2023-02-01T05:31:46;100730.84;;;4.19;100.00
47670;BME280;33408;52.062;11.722;2023-02-01T05:34:13;100729.06;;;4.11;100.00
47670;BME280;33408;52.062;11.722;2023-02-01T05:36:41;100734.22;;;4.14;100.00
47670;BME280;33408;52.062;11.722;2023-02-01T05:39:08;100729.09;;;4.17;100.00
47670;BME280;33408;52.062;11.722;2023-02-01T05:41:35;100717.88;;;4.06;100.00
47670;BME280;33408;52.062;11.722;2023-02-01T05:44:02;100709.31;;;4.02;100.00
47670;BME280;33408;52.062;11.722;2023-02-01T05:46:29;100704.19;;;4.04;100.00
47670;BME280;33408;52.062;11.722;2023-02-01T05:48:56;100700.66;;;3.89;100.00
47670;BME280;33408;52.062;11.722;2023-02-01T05:51:22;100699.88;;;3.95;100.00
47670;BME280;33408;52.062;11.722;2023-02-01T05:53:50;100693.81;;;3.87;100.00
47670;BME280;33408;52.062;11.722;2023-02-01T05:56:17;100701.47;;;3.82;100.00
47670;BME280;33408;52.062;11.722;2023-02-01T05:58:43;100694.63;;;3.82;100.00
47670;BME280;33408;52.062;11.722;2023-02-01T06:01:10;100697.22;;;3.84;100.00
47670;BME280;33408;52.062;11.722;2023-02-01T06:03:36;100686.13;;;3.87;100.00
47670;BME280;33408;52.062;11.722;2023-02-01T06:06:03;100686.19;;;3.97;100.00
47670;BME280;33408;52.062;11.722;2023-02-01T06:08:30;100671.72;;;4.04;100.00
47670;BME280;33408;52.062;11.722;2023-02-01T06:10:59;100672.59;;;4.08;100.00
47670;BME280;33408;52.062;11.722;2023-02-01T06:13:25;100676.00;;;4.07;100.00
47670;BME280;33408;52.062;11.722;2023-02-01T06:15:52;100664.91;;;4.06;100.00
47670;BME280;33408;52.062;11.722;2023-02-01T06:18:19;100672.50;;;3.95;100.00
47670;BME280;33408;52.062;11.722;2023-02-01T06:20:52;100676.75;;;3.92;100.00
47670;BME280;33408;52.062;11.722;2023-02-01T06:23:18;100674.97;;;3.84;100.00
47670;BME280;33408;52.062;11.722;2023-02-01T06:25:50;100678.47;;;3.91;100.00
47670;BME280;33408;52.062;11.722;2023-02-01T06:28:18;100663.09;;;3.96;100.00
47670;BME280;33408;52.062;11.722;2023-02-01T06:30:45;100671.72;;;4.01;100.00
47670;BME280;33408;52.062;11.722;2023-02-01T06:33:12;100662.28;;;3.98;100.00
47670;BME280;33408;52.062;11.722;2023-02-01T06:35:40;100677.66;;;3.98;100.00
47670;BME280;33408;52.062;11.722;2023-02-01T06:38:06;100677.72;;;4.05;100.00
47670;BME280;33408;52.062;11.722;2023-02-01T06:40:33;100685.41;;;4.05;100.00
47670;BME280;33408;52.062;11.722;2023-02-01T06:43:00;100676.84;;;4.06;100.00
47670;BME280;33408;52.062;11.722;2023-02-01T06:45:28;100681.97;;;3.99;100.00
47670;BME280;33408;52.062;11.722;2023-02-01T06:47:55;100680.28;;;4.03;100.00
47670;BME280;33408;52.062;11.722;2023-02-01T06:50:21;100684.53;;;4.06;100.00
47670;BME280;33408;52.062;11.722;2023-02-01T07:09:38;100670.88;;;4.07;100.00
47670;BME280;33408;52.062;11.722;2023-02-01T07:12:05;100670.06;;;4.11;100.00
47670;BME280;33408;52.062;11.722;2023-02-01T07:14:32;100673.50;;;4.13;100.00
47670;BME280;33408;52.062;11.722;2023-02-01T07:16:59;100672.66;;;4.15;100.00
47670;BME280;33408;52.062;11.722;2023-02-01T07:19:25;100671.78;;;4.15;100.00
47670;BME280;33408;52.062;11.722;2023-02-01T07:21:52;100669.28;;;4.21;100.00
47670;BME280;33408;52.062;11.722;2023-02-01T07:24:21;100666.72;;;4.21;100.00
47670;BME280;33408;52.062;11.722;2023-02-01T07:26:49;100659.88;;;4.23;100.00
47670;BME280;33408;52.062;11.722;2023-02-01T07:29:16;100663.34;;;4.28;100.00
47670;BME280;33408;52.062;11.722;2023-02-01T07:31:43;100659.06;;;4.30;100.00
47670;BME280;33408;52.062;11.722;2023-02-01T07:34:10;100647.97;;;4.37;100.00
47670;BME280;33408;52.062;11.722;2023-02-01T07:36:36;100642.88;;;4.42;100.00
47670;BME280;33408;52.062;11.722;2023-02-01T07:39:03;100654.00;;;4.43;100.00
47670;BME280;33408;52.062;11.722;2023-02-01T07:41:30;100660.00;;;4.40;100.00
47670;BME280;33408;52.062;11.722;2023-02-01T07:43:58;100656.53;;;4.35;100.00
47670;BME280;33408;52.062;11.722;2023-02-01T07:46:25;100661.56;;;4.21;100.00
47670;BME280;33408;52.062;11.722;2023-02-01T07:48:51;100663.97;;;3.96;100.00
47670;BME280;33408;52.062;11.722;2023-02-01T07:51:18;100667.31;;;3.89;100.00
47670;BME280;33408;52.062;11.722;2023-02-01T07:53:44;100655.38;;;3.94;100.00
47670;BME280;33408;52.062;11.722;2023-02-01T07:56:13;100667.38;;;3.95;100.00
47670;BME280;33408;52.062;11.722;2023-02-01T07:58:40;100665.75;;;4.05;100.00
47670;BME280;33408;52.062;11.722;2023-02-01T08:01:14;100658.06;;;4.07;100.00
47670;BME280;33408;52.062;11.722;2023-02-01T08:03:45;100658.97;;;4.15;100.00
47670;BME280;33408;52.062;11.722;2023-02-01T08:06:12;100658.16;;;4.20;100.00
47670;BME280;33408;52.062;11.722;2023-02-01T08:08:38;100659.03;;;4.24;100.00
47670;BME280;33408;52.062;11.722;2023-02-01T08:11:06;100661.63;;;4.29;100.00
47670;BME280;33408;52.062;11.722;2023-02-01T08:13:33;100661.59;;;4.24;100.00
47670;BME280;33408;52.062;11.722;2023-02-01T08:16:01;100661.63;;;4.27;100.00
47670;BME280;33408;52.062;11.722;2023-02-01T08:18:30;100665.91;;;4.27;100.00
47670;BME280;33408;52.062;11.722;2023-02-01T08:20:56;100677.00;;;4.27;100.00
47670;BME280;33408;52.062;11.722;2023-02-01T08:23:23;100681.28;;;4.25;100.00
47670;BME280;33408;52.062;11.722;2023-02-01T08:25:50;100677.84;;;4.25;100.00
47670;BME280;33408;52.062;11.722;2023-02-01T08:28:16;100678.72;;;4.24;100.00
47670;BME280;33408;52.062;11.722;2023-02-01T08:30:43;100679.53;;;4.21;100.00
47670;BME280;33408;52.062;11.722;2023-02-01T08:33:09;100682.97;;;4.23;100.00
47670;BME280;33408;52.062;11.722;2023-02-01T08:35:39;100699.22;;;4.22;100.00
47670;BME280;33408;52.062;11.722;2023-02-01T08:38:05;100701.84;;;4.28;100.00
47670;BME280;33408;52.062;11.722;2023-02-01T08:40:32;100715.44;;;4.19;100.00
47670;BME280;33408;52.062;11.722;2023-02-01T08:42:58;100696.63;;;4.17;100.00
47670;BME280;33408;52.062;11.722;2023-02-01T08:45:27;100700.91;;;4.23;100.00
47670;BME280;33408;52.062;11.722;2023-02-01T08:47:55;100708.59;;;4.22;100.00
47670;BME280;33408;52.062;11.722;2023-02-01T08:50:22;100708.59;;;4.22;100.00
47670;BME280;33408;52.062;11.722;2023-02-01T08:52:51;100720.59;;;4.23;100.00
47670;BME280;33408;52.062;11.722;2023-02-01T08:55:18;100730.88;;;4.23;100.00
47670;BME280;33408;52.062;11.722;2023-02-01T08:57:45;100718.03;;;4.24;100.00
47670;BME280;33408;52.062;11.722;2023-02-01T09:00:14;100723.22;;;4.29;100.00
47670;BME280;33408;52.062;11.722;2023-02-01T09:02:41;100715.44;;;4.18;100.00
47670;BME280;33408;52.062;11.722;2023-02-01T09:05:08;100746.25;;;4.21;100.00
47670;BME280;33408;52.062;11.722;2023-02-01T09:07:36;100725.69;;;4.18;100.00
47670;BME280;33408;52.062;11.722;2023-02-01T09:10:05;100735.13;;;4.19;100.00
47670;BME280;33408;52.062;11.722;2023-02-01T09:12:32;100733.44;;;4.23;100.00
47670;BME280;33408;52.062;11.722;2023-02-01T09:14:59;100737.75;;;4.27;100.00
47670;BME280;33408;52.062;11.722;2023-02-01T09:17:26;100731.00;;;4.43;100.00
47670;BME280;33408;52.062;11.722;2023-02-01T09:19:52;100731.91;;;4.46;100.00
47670;BME280;33408;52.062;11.722;2023-02-01T09:22:19;100737.94;;;4.54;100.00
47670;BME280;33408;52.062;11.722;2023-02-01T09:24:46;100731.94;;;4.57;100.00
47670;BME280;33408;52.062;11.722;2023-02-01T09:27:14;100724.25;;;4.52;100.00
47670;BME280;33408;52.062;11.722;2023-02-01T09:29:41;100729.41;;;4.63;100.00
47670;BME280;33408;52.062;11.722;2023-02-01T09:32:07;100737.16;;;4.68;100.00
47670;BME280;33408;52.062;11.722;2023-02-01T09:34:34;100737.97;;;4.65;100.00
47670;BME280;33408;52.062;11.722;2023-02-01T09:37:00;100723.47;;;4.67;100.00
47670;BME280;33408;52.062;11.722;2023-02-01T09:39:27;100749.81;;;4.40;100.00
47670;BME280;33408;52.062;11.722;2023-02-01T09:42:01;100729.28;;;4.38;100.00
47670;BME280;33408;52.062;11.722;2023-02-01T09:44:42;100770.34;;;4.40;100.00
47670;BME280;33408;52.062;11.722;2023-02-01T09:47:13;100773.75;;;4.41;100.00
47670;BME280;33408;52.062;11.722;2023-02-01T09:49:48;100766.09;;;4.45;100.00
47670;BME280;33408;52.062;11.722;2023-02-01T09:52:17;100772.06;;;4.40;100.00
47670;BME280;33408;52.062;11.722;2023-02-01T09:54:50;100771.13;;;4.28;100.00
47670;BME280;33408;52.062;11.722;2023-02-01T09:57:25;100772.91;;;4.38;100.00
47670;BME280;33408;52.062;11.722;2023-02-01T09:59:57;100773.81;;;4.45;100.00
47670;BME280;33408;52.062;11.722;2023-02-01T10:02:26;100770.44;;;4.54;100.00
47670;BME280;33408;52.062;11.722;2023-02-01T10:04:58;100772.16;;;4.56;100.00
47670;BME280;33408;52.062;11.722;2023-02-01T10:07:30;100775.56;;;4.55;100.00
47670;BME280;33408;52.062;11.722;2023-02-01T10:10:00;100767.84;;;4.54;100.00
47670;BME280;33408;52.062;11.722;2023-02-01T10:12:44;100771.38;;;4.64;100.00
47670;BME280;33408;52.062;11.722;2023-02-01T10:15:30;100779.03;;;4.59;100.00
47670;BME280;33408;52.062;11.722;2023-02-01T10:18:15;100784.19;;;4.62;100.00
47670;BME280;33408;52.062;11.722;2023-02-01T10:20:57;100779.09;;;4.64;100.00
47670;BME280;33408;52.062;11.722;2023-02-01T10:23:37;100783.44;;;4.75;100.00
47670;BME280;33408;52.062;11.722;2023-02-01T10:26:12;100774.13;;;4.95;100.00
47670;BME280;33408;52.062;11.722;2023-02-01T10:28:43;100771.63;;;5.11;100.00
47670;BME280;33408;52.062;11.722;2023-02-01T10:31:12;100773.31;;;5.05;100.00
47670;BME280;33408;52.062;11.722;2023-02-01T10:33:43;100798.03;;;4.84;100.00
47670;BME280;33408;52.062;11.722;2023-02-01T10:36:21;100761.06;;;4.59;100.00
47670;BME280;33408;52.062;11.722;2023-02-01T10:38:49;100755.91;;;4.54;100.00
47670;BME280;33408;52.062;11.722;2023-02-01T10:41:18;100770.44;;;4.52;100.00
47670;BME280;33408;52.062;11.722;2023-02-01T10:43:49;100778.13;;;4.55;100.00
47670;BME280;33408;52.062;11.722;2023-02-01T10:46:18;100766.16;;;4.54;100.00
47670;BME280;33408;52.062;11.722;2023-02-01T10:48:45;100774.69;;;4.50;100.00
47670;BME280;33408;52.062;11.722;2023-02-01T10:51:17;100761.06;;;4.56;100.00
47670;BME280;33408;52.062;11.722;2023-02-01T10:53:49;100744.81;;;4.63;100.00
47670;BME280;33408;52.062;11.722;2023-02-01T10:56:22;100733.78;;;4.75;100.00
47670;BME280;33408;52.062;11.722;2023-02-01T10:58:49;100737.25;;;4.86;100.00
47670;BME280;33408;52.062;11.722;2023-02-01T11:01:21;100728.78;;;5.07;100.00
47670;BME280;33408;52.062;11.722;2023-02-01T11:03:53;100719.41;;;5.17;100.00
47670;BME280;33408;52.062;11.722;2023-02-01T11:06:27;100722.00;;;5.34;100.00
47670;BME280;33408;52.062;11.722;2023-02-01T11:08:55;100713.50;;;5.46;100.00
47670;BME280;33408;52.062;11.722;2023-02-01T11:11:23;100717.78;;;5.52;100.00
47670;BME280;33408;52.062;11.722;2023-02-01T11:17:26;100710.06;;;5.55;100.00
47670;BME280;33408;52.062;11.722;2023-02-01T11:19:57;100696.34;;;5.50;100.00
47670;BME280;33408;52.062;11.722;2023-02-01T11:22:25;100694.63;;;5.53;100.00
47670;BME280;33408;52.062;11.722;2023-02-01T11:24:52;100710.94;;;5.60;100.00
47670;BME280;33408;52.062;11.722;2023-02-01T11:27:21;100716.94;;;5.57;100.00
47670;BME280;33408;52.062;11.722;2023-02-01T11:29:51;100703.22;;;5.55;100.00
47670;BME280;33408;52.062;11.722;2023-02-01T11:32:20;100704.09;;;5.56;100.00
47670;BME280;33408;52.062;11.722;2023-02-01T11:34:53;100707.50;;;5.59;100.00
47670;BME280;33408;52.062;11.722;2023-02-01T11:37:21;100703.22;;;5.66;100.00
47670;BME280;33408;52.062;11.722;2023-02-01T11:39:54;100704.94;;;5.81;100.00
47670;BME280;33408;52.062;11.722;2023-02-01T11:42:22;100678.38;;;5.93;100.00
47670;BME280;33408;52.062;11.722;2023-02-01T11:44:48;100680.97;;;6.00;100.00
47670;BME280;33408;52.062;11.722;2023-02-01T11:47:20;100680.97;;;6.20;100.00
47670;BME280;33408;52.062;11.722;2023-02-01T11:49:50;100678.38;;;6.31;100.00
47670;BME280;33408;52.062;11.722;2023-02-01T11:52:44;100679.22;;;6.39;100.00
47670;BME280;33408;52.062;11.722;2023-02-01T11:55:31;100672.34;;;6.37;100.00
47670;BME280;33408;52.062;11.722;2023-02-01T11:58:14;100669.78;;;6.31;100.00
47670;BME280;33408;52.062;11.722;2023-02-01T12:00:52;100662.94;;;6.27;100.00
47670;BME280;33408;52.062;11.722;2023-02-01T12:06:32;100662.94;;;6.30;100.00
47670;BME280;33408;52.062;11.722;2023-02-01T12:09:12;100661.22;;;6.29;100.00
47670;BME280;33408;52.062;11.722;2023-02-01T12:11:48;100650.94;;;6.26;100.00
47670;BME280;33408;52.062;11.722;2023-02-01T12:14:36;100648.34;;;6.29;100.00
47670;BME280;33408;52.062;11.722;2023-02-01T12:17:17;100644.03;;;6.29;100.00
47670;BME280;33408;52.062;11.722;2023-02-01T12:20:15;100632.91;;;6.32;100.00
47670;BME280;33408;52.062;11.722;2023-02-01T12:22:58;100625.16;;;6.38;100.00
47670;BME280;33408;52.062;11.722;2023-02-01T12:25:35;100621.75;;;6.36;100.00
47670;BME280;33408;52.062;11.722;2023-02-01T12:28:16;100609.72;;;6.32;100.00
47670;BME280;33408;52.062;11.722;2023-02-01T12:30:56;100619.16;;;6.34;100.00
47670;BME280;33408;52.062;11.722;2023-02-01T12:33:37;100607.13;;;6.36;100.00
47670;BME280;33408;52.062;11.722;2023-02-01T12:36:14;100608.81;;;6.45;100.00
47670;BME280;33408;52.062;11.722;2023-02-01T12:38:54;100606.22;;;6.56;100.00
47670;BME280;33408;52.062;11.722;2023-02-01T12:41:46;100595.72;;;6.93;100.00
47670;BME280;33408;52.062;11.722;2023-02-01T12:44:24;100589.63;;;7.06;100.00
47670;BME280;33408;52.062;11.722;2023-02-01T12:46:57;100590.50;;;7.07;100.00
47670;BME280;33408;52.062;11.722;2023-02-01T12:49:30;100580.22;;;7.04;100.00
47670;BME280;33408;52.062;11.722;2023-02-01T12:52:03;100576.75;;;7.05;100.00
47670;BME280;33408;52.062;11.722;2023-02-01T12:54:36;100568.13;;;7.12;100.00
47670;BME280;33408;52.062;11.722;2023-02-01T12:57:11;100563.72;;;7.26;100.00
47670;BME280;33408;52.062;11.722;2023-02-01T12:59:41;100569.75;;;7.22;100.00
47670;BME280;33408;52.062;11.722;2023-02-01T13:02:15;100559.56;;;7.08;100.00
47670;BME280;33408;52.062;11.722;2023-02-01T13:04:55;100562.25;;;6.88;100.00
47670;BME280;33408;52.062;11.722;2023-02-01T13:07:28;100559.81;;;6.67;100.00
47670;BME280;33408;52.062;11.722;2023-02-01T13:10:02;100548.72;;;6.54;100.00
47670;BME280;33408;52.062;11.722;2023-02-01T13:12:35;100540.16;;;6.46;100.00
47670;BME280;33408;52.062;11.722;2023-02-01T13:15:09;100533.31;;;6.43;100.00
47670;BME280;33408;52.062;11.722;2023-02-01T13:17:39;100541.03;;;6.42;100.00
47670;BME280;33408;52.062;11.722;2023-02-01T13:20:13;100539.25;;;6.51;100.00
47670;BME280;33408;52.062;11.722;2023-02-01T13:22:45;100547.91;;;6.44;100.00